Time;durP1;ratioP1;P1;durP2;ratioP2;P2;SDS_P1;SDS_P2;PMS_P1;PMS_P2;Temp;Humidity;BMP_temperature;BMP_pressure;BME280_temperature;BME280_humidity;BME280_pressure;Samples;Min_cycle;Max_cycle;Signal;HPM_P1;HPM_P2
2021/12/11 00:27:14;;;;;;;11.00;1.97;;;;;;;15.05;nan;102410.19;4768769;30;20436;-88
2021/12/11 03:46:27;;;;;;;;;;;;;;;;;;;;;
2021/12/11 03:53:35;;;;;;;;;;;;;;;;;;;;;
2021/12/11 03:56:51;;;;;;;7.50;1.80;;;;;;;14.05;nan;102237.75;4664570;30;20552;-88
2021/12/11 04:11:42;;;;;;;2.93;1.50;;;;;;;14.09;nan;102241.84;4597548;31;20441;-88
2021/12/11 04:15:07;;;;;;;7.50;1.80;;;;;;;14.09;nan;102252.84;4578920;31;20457;-89
2021/12/11 08:16:58;;;;;;;9.73;2.30;;;;;;;13.77;nan;102282.22;4769601;29;20454;-89
2021/12/11 08:46:48;;;;;;;8.80;1.80;;;;;;;14.25;nan;102335.25;4752592;30;20550;-95
2021/12/11 10:57:54;;;;;;;5.10;1.00;;;;;;;17.50;nan;102257.03;4797762;29;20949;-91
2021/12/11 11:00:57;;;;;;;6.43;1.27;;;;;;;17.64;nan;102275.44;4796668;29;20863;-93
2021/12/11 11:07:27;;;;;;;3.80;1.63;;;;;;;17.97;nan;102267.31;4829138;29;20475;-96
2021/12/11 11:10:21;;;;;;;4.80;1.30;;;;;;;18.12;nan;102267.16;4818829;24;20871;-96
2021/12/11 11:58:29;;;;;;;5.37;1.13;;;;;;;19.39;nan;102139.63;4789232;30;20507;-91
2021/12/11 12:01:31;;;;;;;3.60;1.07;;;;;;;19.41;nan;102143.03;4773923;30;20473;-89
2021/12/11 12:04:00;;;;;;;5.47;1.07;;;;;;;19.43;nan;102150.09;4772541;30;20451;-92
2021/12/11 12:06:32;;;;;;;4.23;1.20;;;;;;;19.51;nan;102144.31;4804760;29;20464;-89
2021/12/11 12:09:02;;;;;;;5.80;1.23;;;;;;;19.72;nan;102140.38;4776940;30;20510;-89
2021/12/11 12:11:31;;;;;;;3.43;1.00;;;;;;;19.79;nan;102144.00;4794376;30;20494;-91
2021/12/11 12:14:01;;;;;;;7.20;1.50;;;;;;;19.87;nan;102146.50;4773618;30;20822;-89
2021/12/11 12:16:30;;;;;;;4.80;1.30;;;;;;;19.78;nan;102145.06;4773313;30;20467;-90
2021/12/11 12:18:59;;;;;;;5.40;1.37;;;;;;;19.79;nan;102140.38;4773855;30;20471;-90
2021/12/11 12:21:30;;;;;;;5.33;1.10;;;;;;;19.92;nan;102152.25;4773719;30;20471;-90
2021/12/11 12:27:42;;;;;;;7.07;1.97;;;;;;;19.89;nan;102135.19;4789244;30;20511;-90
2021/12/11 12:30:16;;;;;;;1.97;1.03;;;;;;;19.95;nan;102146.25;4758792;30;20814;-89
2021/12/11 12:32:45;;;;;;;5.60;1.40;;;;;;;20.06;nan;102129.97;4758465;30;20462;-90
2021/12/11 12:35:14;;;;;;;3.90;1.13;;;;;;;20.18;nan;102119.84;4773184;30;20478;-89
2021/12/11 12:37:42;;;;;;;9.63;0.90;;;;;;;20.16;nan;102120.09;4758541;30;20467;-89
2021/12/11 12:40:18;;;;;;;5.83;1.63;;;;;;;20.14;nan;102099.16;4772791;30;20982;-89
2021/12/11 12:47:15;;;;;;;8.23;1.70;;;;;;;20.30;nan;102098.63;4788904;30;20544;-90
2021/12/11 12:49:47;;;;;;;7.93;2.10;;;;;;;20.32;nan;102082.59;4788485;29;20467;-89
2021/12/11 12:52:20;;;;;;;9.37;2.10;;;;;;;20.34;nan;102084.06;4772784;30;20544;-89
2021/12/11 12:54:48;;;;;;;7.63;2.13;;;;;;;20.25;nan;102079.84;4772453;30;20483;-89
2021/12/11 12:57:22;;;;;;;12.50;2.23;;;;;;;20.29;nan;102088.59;4788800;30;20455;-89
2021/12/11 12:59:55;;;;;;;8.10;2.33;;;;;;;20.40;nan;102098.16;4772821;30;20500;-89
2021/12/11 13:02:25;;;;;;;10.50;2.57;;;;;;;20.44;nan;102103.00;4772927;30;20504;-89
2021/12/11 13:05:05;;;;;;;19.47;2.77;;;;;;;20.53;nan;102096.13;4772723;30;20498;-89
2021/12/11 13:07:53;;;;;;;12.90;2.93;;;;;;;20.68;nan;102099.41;4787683;30;20469;-89
2021/12/11 13:10:29;;;;;;;8.27;1.80;;;;;;;20.74;nan;102082.91;4726364;30;20456;-89
2021/12/11 13:12:58;;;;;;;10.77;2.63;;;;;;;20.84;nan;102088.75;4754749;30;20460;-89
2021/12/11 13:15:34;;;;;;;10.37;2.40;;;;;;;20.89;nan;102081.44;4754874;30;20506;-90
2021/12/11 13:18:05;;;;;;;14.33;3.17;;;;;;;20.90;nan;102073.97;4769458;30;20493;-89
2021/12/11 13:20:39;;;;;;;11.53;2.50;;;;;;;20.91;nan;102084.00;4754722;30;20455;-90
2021/12/11 13:23:07;;;;;;;19.83;2.70;;;;;;;20.89;nan;102092.56;4769093;30;20459;-90
2021/12/11 13:25:44;;;;;;;16.50;3.33;;;;;;;20.89;nan;102089.78;4740004;30;21099;-90
2021/12/11 13:28:14;;;;;;;12.43;3.23;;;;;;;20.85;nan;102091.31;4769372;30;20455;-90
2021/12/11 13:30:50;;;;;;;13.47;2.60;;;;;;;20.76;nan;102087.16;4768968;30;20460;-90
2021/12/11 13:33:28;;;;;;;8.87;2.30;;;;;;;20.71;nan;102083.34;4733275;30;20464;-90
2021/12/11 13:35:58;;;;;;;15.67;2.80;;;;;;;20.68;nan;102079.09;4718207;30;20469;-89
2021/12/11 13:38:29;;;;;;;14.50;4.60;;;;;;;20.67;nan;102078.25;4720183;30;20472;-90
2021/12/11 13:41:00;;;;;;;10.17;3.07;;;;;;;20.61;nan;102059.69;4721008;30;20473;-90
2021/12/11 13:43:29;;;;;;;11.53;2.70;;;;;;;20.66;nan;102070.13;4722292;30;20865;-90
2021/12/11 13:45:58;;;;;;;25.77;4.37;;;;;;;20.53;nan;102043.34;4735751;30;20858;-90
2021/12/11 13:48:27;;;;;;;10.87;3.03;;;;;;;20.53;nan;102048.88;4721427;30;20469;-90
2021/12/11 13:51:37;;;;;;;23.73;4.23;;;;;;;20.56;74.00;102054.00;5069372;27;20538;-90
2021/12/11 13:54:06;;;;;;;11.73;2.93;;;;;;;20.58;73.94;102054.63;5070799;28;20450;-90
2021/12/11 13:56:45;;;;;;;15.30;3.47;;;;;;;20.69;74.08;102061.34;5035629;28;20434;-92
2021/12/11 13:59:14;;;;;;;13.37;3.23;;;;;;;20.72;74.09;102057.25;5051852;28;20927;-91
2021/12/11 14:01:42;;;;;;;12.13;2.57;;;;;;;20.69;73.88;102062.19;5051672;28;20988;-90
2021/12/11 14:12:19;;;;;;;14.37;2.73;;;;;;;20.61;74.17;102047.72;5070021;28;20393;-91
2021/12/11 14:14:47;;;;;;;29.37;5.27;;;;;;;20.56;74.25;102042.03;5068164;28;20452;-91
2021/12/11 14:17:16;;;;;;;16.10;3.20;;;;;;;20.38;74.35;102037.28;5035674;28;20453;-90
2021/12/11 14:19:45;;;;;;;23.87;4.10;;;;;;;20.36;75.40;102042.19;5035976;28;20445;-90
2021/12/11 14:22:19;;;;;;;9.60;3.03;;;;;;;20.35;75.16;102035.78;5052216;28;20477;-91
2021/12/11 14:24:46;;;;;;;14.13;3.87;;;;;;;20.28;75.11;102034.97;5068957;28;20499;-90
2021/12/11 14:27:17;;;;;;;21.70;4.23;;;;;;;20.30;75.76;102034.75;5052663;28;20438;-90
2021/12/11 14:29:53;;;;;;;17.20;3.67;;;;;;;20.25;75.98;102029.00;5051974;28;21014;-91
2021/12/11 14:32:28;;;;;;;18.13;3.67;;;;;;;20.26;75.70;102030.72;5035887;28;20802;-90
2021/12/11 14:34:57;;;;;;;14.93;3.33;;;;;;;20.22;75.78;102029.47;5064487;28;20946;-91
2021/12/11 14:52:39;;;;;;;23.50;4.27;;;;;;;20.13;76.85;101994.75;5051333;28;20444;-89
2021/12/11 14:55:16;;;;;;;13.30;3.40;;;;;;;20.14;76.59;102004.78;5049870;28;20499;-88
2021/12/11 14:57:44;;;;;;;14.57;3.60;;;;;;;20.13;77.05;102019.72;5051584;28;20890;-89
2021/12/11 15:00:16;;;;;;;14.37;3.73;;;;;;;20.12;76.22;102030.00;5035176;28;20448;-88
2021/12/11 15:02:44;;;;;;;11.83;3.30;;;;;;;19.96;76.86;102023.06;5038242;28;20492;-89
2021/12/11 15:05:41;;;;;;;13.37;3.43;;;;;;;19.84;77.01;102030.38;5038471;28;20446;-89
2021/12/11 15:08:10;;;;;;;18.43;3.20;;;;;;;19.89;77.32;102027.81;5041768;28;20902;-88
2021/12/11 15:10:38;;;;;;;15.80;3.67;;;;;;;19.86;77.63;102031.03;5021719;28;20478;-89
2021/12/11 15:13:17;;;;;;;17.00;3.87;;;;;;;19.89;77.48;102025.03;5024478;28;20446;-88
2021/12/11 15:15:51;;;;;;;11.63;2.60;;;;;;;19.91;77.92;102017.34;5023483;28;20818;-88
2021/12/11 15:18:20;;;;;;;14.30;3.57;;;;;;;19.90;78.09;102009.22;5038571;28;20445;-88
2021/12/11 15:20:50;;;;;;;12.47;2.80;;;;;;;19.91;78.22;102016.47;5022049;28;20493;-88
2021/12/11 15:23:19;;;;;;;10.80;2.97;;;;;;;19.90;78.01;102018.41;5022056;28;21057;-88
2021/12/11 15:25:48;;;;;;;14.20;2.80;;;;;;;19.77;78.32;102004.63;5037394;28;20929;-88
2021/12/11 15:28:16;;;;;;;11.20;3.17;;;;;;;19.83;78.61;102023.13;5037987;28;20445;-88
2021/12/11 15:30:47;;;;;;;10.63;3.23;;;;;;;19.79;78.32;102019.13;5022064;28;20841;-89
2021/12/11 15:33:35;;;;;;;15.47;3.50;;;;;;;19.79;78.32;102019.13;5040746;28;20490;-90
2021/12/11 15:36:04;;;;;;;11.60;2.63;;;;;;;19.83;78.27;102025.91;5021936;28;20461;-89
2021/12/11 15:38:32;;;;;;;24.77;3.60;;;;;;;19.71;78.45;102011.06;5021371;28;20474;-89
2021/12/11 15:41:01;;;;;;;14.40;3.20;;;;;;;19.66;78.73;102016.44;5037315;28;20504;-89
2021/12/11 15:43:29;;;;;;;19.07;3.17;;;;;;;19.61;78.97;102016.28;5038192;28;20484;-89
2021/12/11 15:46:01;;;;;;;12.17;2.60;;;;;;;19.64;79.21;102026.88;5021871;28;20441;-89
2021/12/11 15:48:29;;;;;;;11.20;3.13;;;;;;;19.60;79.57;102025.66;5021192;28;20858;-89
2021/12/11 15:50:59;;;;;;;13.20;3.23;;;;;;;19.52;80.40;102007.34;5022172;28;20483;-89
2021/12/11 15:53:27;;;;;;;13.80;2.97;;;;;;;19.52;80.12;102012.03;5020817;28;20475;-89
2021/12/11 15:55:57;;;;;;;15.57;3.70;;;;;;;19.47;80.41;102012.66;5037604;28;20459;-89
2021/12/11 15:58:26;;;;;;;17.53;2.90;;;;;;;19.33;80.81;102003.56;5037603;28;20533;-89
2021/12/11 16:01:00;;;;;;;18.67;3.70;;;;;;;19.31;80.92;102007.63;5037421;28;20445;-89
2021/12/11 16:03:43;;;;;;;12.83;2.50;;;;;;;19.21;81.63;102010.91;5033091;28;20447;-90
2021/12/11 16:06:17;;;;;;;22.87;3.37;;;;;;;19.13;82.52;102008.34;5037251;28;20422;-89
2021/12/11 16:08:48;;;;;;;10.27;2.50;;;;;;;19.15;81.77;102005.38;5055047;28;20449;-89
2021/12/11 16:11:30;;;;;;;17.53;3.30;;;;;;;19.05;82.30;102003.03;5039542;28;20988;-89
2021/12/11 16:14:08;;;;;;;14.50;2.70;;;;;;;18.91;82.44;101995.84;5035889;28;20504;-89
2021/12/11 16:16:38;;;;;;;11.27;3.13;;;;;;;18.83;83.07;101979.50;5037481;28;20450;-89
2021/12/11 16:19:07;;;;;;;17.13;3.43;;;;;;;18.85;83.40;101997.59;5054586;28;20442;-90
2021/12/11 16:21:39;;;;;;;19.90;3.97;;;;;;;18.71;84.25;101989.53;5020949;28;20972;-89
2021/12/11 16:24:10;;;;;;;9.23;2.90;;;;;;;18.47;84.89;101972.50;5037481;28;20459;-88
2021/12/11 16:26:43;;;;;;;15.70;4.23;;;;;;;18.51;85.80;101997.84;5037264;28;20435;-89
2021/12/11 16:29:11;;;;;;;18.93;3.60;;;;;;;18.32;85.96;101982.97;5053525;28;20435;-89
2021/12/11 16:31:41;;;;;;;10.13;2.77;;;;;;;18.30;86.24;101998.94;5020619;28;20512;-89
2021/12/11 16:34:09;;;;;;;18.10;3.47;;;;;;;18.11;87.42;101985.97;5021009;28;20423;-89
2021/12/11 16:37:28;;;;;;;22.13;4.50;;;;;;;17.98;88.15;102002.56;5020670;28;20443;-90
2021/12/11 16:39:56;;;;;;;13.50;3.53;;;;;;;17.79;88.54;102010.63;5053092;28;20505;-89
2021/12/11 16:42:36;;;;;;;18.97;3.10;;;;;;;17.67;90.10;102019.78;5019961;28;20445;-89
2021/12/11 16:45:06;;;;;;;9.70;3.30;;;;;;;17.57;90.50;102011.81;5052778;28;20439;-89
2021/12/11 16:47:34;;;;;;;20.80;3.70;;;;;;;17.45;91.17;102010.75;5020797;28;20446;-89
2021/12/11 16:50:05;;;;;;;10.90;2.77;;;;;;;17.32;91.77;102007.94;5019734;28;20532;-89
2021/12/11 16:52:34;;;;;;;18.80;3.90;;;;;;;17.19;92.21;102004.06;5052503;28;20940;-89
2021/12/11 16:55:03;;;;;;;14.53;3.83;;;;;;;17.13;93.10;102010.41;5052773;28;20529;-89
2021/12/11 16:57:31;;;;;;;11.10;3.37;;;;;;;17.06;93.82;102009.53;5019927;28;20435;-90
2021/12/11 16:59:59;;;;;;;19.93;3.80;;;;;;;17.03;93.75;102018.22;5036028;28;20459;-89
2021/12/11 17:02:27;;;;;;;20.00;4.00;;;;;;;16.93;94.36;102015.00;5020004;28;20529;-90
2021/12/11 17:04:55;;;;;;;22.97;3.23;;;;;;;16.85;94.68;102006.88;5019596;28;20964;-87
2021/12/11 17:07:25;;;;;;;16.87;4.97;;;;;;;16.79;95.25;102027.03;5019505;28;20446;-90
2021/12/11 17:09:54;;;;;;;19.97;3.30;;;;;;;16.68;96.08;102016.56;5020282;28;20478;-89
2021/12/11 17:12:23;;;;;;;8.70;2.77;;;;;;;16.62;96.14;102020.09;5036609;28;20439;-89
2021/12/11 17:14:54;;;;;;;12.70;3.10;;;;;;;16.54;96.82;102026.63;5019578;28;20790;-89
2021/12/11 17:17:22;;;;;;;16.67;3.30;;;;;;;16.51;97.52;102022.38;5020143;28;20576;-89
2021/12/11 17:19:50;;;;;;;11.67;3.40;;;;;;;16.49;97.95;102041.03;5019652;28;20474;-89
2021/12/11 17:22:18;;;;;;;18.43;2.80;;;;;;;16.36;97.33;102024.34;5036020;28;20435;-89
2021/12/11 17:24:52;;;;;;;13.90;3.00;;;;;;;16.35;98.30;102030.09;5019163;28;20438;-88
2021/12/11 17:27:21;;;;;;;10.13;2.53;;;;;;;16.21;98.90;102027.22;5035898;28;20431;-88
2021/12/11 17:29:51;;;;;;;18.27;3.37;;;;;;;16.18;99.33;102026.75;5019877;28;20439;-89
2021/12/11 17:32:19;;;;;;;11.93;2.53;;;;;;;16.14;99.89;102037.34;5019606;28;20469;-89
2021/12/11 17:34:47;;;;;;;12.40;2.47;;;;;;;16.12;99.89;102046.88;5019555;28;20442;-89
2021/12/11 17:37:16;;;;;;;16.57;3.20;;;;;;;16.08;100.00;102049.19;5019115;28;20861;-89
2021/12/11 17:39:44;;;;;;;12.87;3.13;;;;;;;16.02;100.00;102038.06;5051994;28;20895;-88
2021/12/11 17:42:14;;;;;;;24.20;3.97;;;;;;;16.02;100.00;102046.34;5017714;28;20439;-90
2021/12/11 17:44:43;;;;;;;12.60;4.23;;;;;;;15.96;100.00;102049.91;5034754;28;20959;-89
2021/12/11 17:47:12;;;;;;;14.00;2.90;;;;;;;15.94;100.00;102063.03;5049876;28;20434;-89
2021/12/11 17:49:43;;;;;;;12.43;3.20;;;;;;;15.93;100.00;102047.53;5018963;28;20460;-89
2021/12/11 17:52:16;;;;;;;18.23;3.00;;;;;;;15.92;100.00;102057.72;5063257;28;20466;-88
2021/12/11 17:54:44;;;;;;;12.63;3.00;;;;;;;15.89;100.00;102055.34;5033719;28;20478;-90
2021/12/11 17:57:12;;;;;;;6.40;2.70;;;;;;;15.84;100.00;102050.41;5034548;28;20437;-90
2021/12/11 17:59:41;;;;;;;16.97;3.63;;;;;;;15.77;100.00;102052.28;5018454;28;20431;-91
2021/12/11 18:02:18;;;;;;;18.70;3.70;;;;;;;15.71;100.00;102053.06;5019034;28;20818;-90
2021/12/11 18:04:48;;;;;;;11.63;2.47;;;;;;;15.71;100.00;102058.56;5036058;28;20438;-91
2021/12/11 18:07:23;;;;;;;14.83;4.57;;;;;;;15.69;100.00;102057.03;5034598;28;20456;-93
2021/12/11 18:09:54;;;;;;;17.07;3.67;;;;;;;15.63;100.00;102050.41;5050948;28;20480;-92
2021/12/11 18:12:45;;;;;;;23.40;5.20;;;;;;;15.55;100.00;102045.00;5018944;28;20964;-93
2021/12/11 18:15:25;;;;;;;23.30;4.20;;;;;;;15.50;100.00;102053.00;5019068;28;20438;-93
2021/12/11 18:17:57;;;;;;;15.03;4.63;;;;;;;15.47;100.00;102051.47;5036046;28;20446;-92
2021/12/11 18:20:41;;;;;;;25.53;6.90;;;;;;;15.46;100.00;102065.44;5036200;28;20454;-95
2021/12/11 18:23:25;;;;;;;16.43;4.80;;;;;;;15.33;100.00;102048.75;5067378;28;20445;-92
2021/12/11 18:26:03;;;;;;;21.03;5.27;;;;;;;15.43;100.00;102065.81;5036930;28;20510;-93
2021/12/11 18:37:07;;;;;;;18.63;3.97;;;;;;;15.34;100.00;102080.78;5055225;28;20444;-92
2021/12/11 18:39:36;;;;;;;15.13;4.40;;;;;;;15.28;100.00;102078.78;5056210;28;20496;-92
2021/12/11 18:42:34;;;;;;;19.33;5.60;;;;;;;15.31;100.00;102083.91;5023921;28;20953;-92
2021/12/11 18:45:18;;;;;;;26.20;5.30;;;;;;;15.21;100.00;102074.03;5038051;28;20439;-92
2021/12/11 18:47:57;;;;;;;14.63;5.33;;;;;;;15.23;100.00;102076.59;5037770;28;20461;-93
2021/12/11 18:50:41;;;;;;;18.53;5.83;;;;;;;15.30;100.00;102087.69;5052701;28;20528;-92
2021/12/11 18:53:15;;;;;;;18.83;4.77;;;;;;;15.23;100.00;102079.34;5053237;28;20454;-92
2021/12/11 18:55:54;;;;;;;18.60;3.93;;;;;;;15.14;100.00;102073.09;5039450;28;20871;-92
2021/12/11 18:58:45;;;;;;;15.93;4.43;;;;;;;15.13;100.00;102079.66;5022232;28;20513;-92
2021/12/11 19:01:23;;;;;;;17.93;4.37;;;;;;;15.08;100.00;102068.34;5038049;28;20531;-93
2021/12/11 19:04:25;;;;;;;17.50;3.70;;;;;;;15.06;100.00;102075.94;5055785;28;20455;-91
2021/12/11 19:07:04;;;;;;;20.17;3.77;;;;;;;15.06;100.00;102078.69;5038131;28;21004;-93
2021/12/11 19:10:08;;;;;;;20.43;5.17;;;;;;;15.06;100.00;102078.69;5038413;28;20429;-92
2021/12/11 19:12:40;;;;;;;20.23;4.67;;;;;;;15.08;100.00;102084.00;5087474;28;20459;-92
2021/12/11 19:15:17;;;;;;;20.93;4.40;;;;;;;15.08;100.00;102084.88;5038202;28;20500;-93
2021/12/11 19:17:47;;;;;;;23.00;7.30;;;;;;;15.05;100.00;102079.75;5036605;28;20534;-94
2021/12/11 19:20:23;;;;;;;22.47;6.87;;;;;;;15.10;100.00;102085.53;5037102;28;20454;-91
2021/12/11 19:23:04;;;;;;;13.43;4.70;;;;;;;15.02;100.00;102076.50;5067697;28;20438;-93
2021/12/11 19:25:32;;;;;;;23.97;6.00;;;;;;;15.09;100.00;102083.81;5038553;28;20450;-91
2021/12/11 19:28:01;;;;;;;23.90;6.20;;;;;;;15.12;100.00;102088.97;5021557;28;20441;-91
2021/12/11 19:30:40;;;;;;;23.30;7.23;;;;;;;15.12;100.00;102090.84;5022189;28;20830;-91
2021/12/11 19:33:12;;;;;;;39.53;8.90;;;;;;;15.04;100.00;102078.03;5035732;28;20446;-92
2021/12/11 19:35:41;;;;;;;27.10;8.00;;;;;;;15.12;100.00;102097.22;5022897;28;20500;-91
2021/12/11 19:38:12;;;;;;;20.47;5.60;;;;;;;15.13;100.00;102098.94;5037039;28;20500;-92
2021/12/11 19:40:44;;;;;;;20.57;4.27;;;;;;;15.13;100.00;102100.81;5033928;28;20479;-91
2021/12/11 19:43:15;;;;;;;22.13;4.60;;;;;;;15.17;100.00;102113.19;5052798;28;20458;-90
2021/12/11 19:45:49;;;;;;;27.23;7.10;;;;;;;15.13;100.00;102103.59;5034434;28;20451;-91
2021/12/11 19:48:21;;;;;;;41.40;12.50;;;;;;;15.11;100.00;102103.78;5014858;28;20542;-91
2021/12/11 19:50:54;;;;;;;28.73;10.50;;;;;;;15.03;100.00;102098.34;5061948;28;20837;-90
2021/12/11 19:53:22;;;;;;;24.40;9.63;;;;;;;14.96;100.00;102100.16;5053528;28;20485;-90
2021/12/11 19:55:56;;;;;;;32.13;10.97;;;;;;;14.82;100.00;102096.34;5037392;28;20494;-90
2021/12/11 19:58:28;;;;;;;27.10;7.43;;;;;;;14.78;100.00;102110.69;5012870;28;20450;-90
2021/12/11 20:00:59;;;;;;;19.00;7.07;;;;;;;14.74;100.00;102106.59;5054259;28;20466;-90
2021/12/11 20:03:29;;;;;;;29.33;8.37;;;;;;;14.59;100.00;102095.56;5028795;28;20436;-89
2021/12/11 20:06:05;;;;;;;19.93;6.50;;;;;;;14.60;100.00;102102.78;5018136;28;20459;-90
2021/12/11 20:08:42;;;;;;;22.07;6.93;;;;;;;14.54;100.00;102109.03;5033162;28;20516;-90
2021/12/11 20:11:43;;;;;;;16.90;6.77;;;;;;;14.44;100.00;102114.78;5020275;28;22218;-90
2021/12/11 20:14:14;;;;;;;27.33;6.73;;;;;;;14.36;100.00;102109.34;5062961;28;20495;-90
2021/12/11 20:16:43;;;;;;;21.17;7.30;;;;;;;14.31;100.00;102109.03;5033561;28;20512;-90
2021/12/11 20:19:23;;;;;;;27.33;7.67;;;;;;;14.27;100.00;102107.69;5017625;28;20443;-89
2021/12/11 20:21:53;;;;;;;20.37;7.30;;;;;;;14.21;100.00;102111.19;5053228;28;20442;-90
2021/12/11 20:24:25;;;;;;;59.73;20.10;;;;;;;14.16;100.00;102114.47;5038760;28;20446;-89
2021/12/11 20:26:56;;;;;;;53.17;17.23;;;;;;;14.13;100.00;102116.75;5050345;28;20520;-89
2021/12/11 20:29:33;;;;;;;40.20;14.60;;;;;;;14.04;100.00;102102.22;5040725;28;20450;-90
2021/12/11 20:32:09;;;;;;;25.13;8.00;;;;;;;14.04;100.00;102104.97;5023852;28;20504;-89
2021/12/11 20:34:47;;;;;;;23.63;10.37;;;;;;;14.01;100.00;102107.22;5037253;28;20809;-89
2021/12/11 20:37:17;;;;;;;23.43;9.83;;;;;;;13.94;100.00;102101.59;5052332;28;20438;-90
2021/12/11 20:39:45;;;;;;;36.03;8.83;;;;;;;13.91;100.00;102095.59;5035769;28;20545;-89
2021/12/11 20:42:16;;;;;;;32.60;11.87;;;;;;;13.85;100.00;102096.34;5020592;28;20453;-89
2021/12/11 20:44:52;;;;;;;31.40;9.67;;;;;;;13.83;100.00;102108.38;5020583;28;20450;-89
2021/12/11 20:47:22;;;;;;;23.23;8.33;;;;;;;13.78;100.00;102090.72;5033733;28;20439;-89
2021/12/11 20:49:57;;;;;;;23.10;7.07;;;;;;;13.77;100.00;102109.09;5053621;28;20796;-89
2021/12/11 20:52:28;;;;;;;18.90;8.00;;;;;;;13.71;100.00;102109.81;5031912;28;20847;-90
2021/12/11 20:55:01;;;;;;;20.10;7.50;;;;;;;13.64;100.00;102095.09;5048942;28;20945;-90
2021/12/11 20:57:29;;;;;;;24.97;10.20;;;;;;;13.64;100.00;102110.72;5020373;28;20455;-90
2021/12/11 20:59:57;;;;;;;35.30;9.20;;;;;;;13.56;100.00;102100.63;5052346;28;20454;-88
2021/12/11 21:02:27;;;;;;;26.30;9.50;;;;;;;13.53;100.00;102109.22;5068732;28;20951;-89
2021/12/11 21:05:28;;;;;;;21.53;7.80;;;;;;;13.44;100.00;102102.09;5036502;28;20434;-88
2021/12/11 21:07:56;;;;;;;20.60;6.40;;;;;;;13.45;100.00;102106.53;5051336;28;20434;-87
2021/12/11 21:10:43;;;;;;;20.63;8.67;;;;;;;13.40;100.00;102114.44;5034655;28;20512;-88
2021/12/11 21:13:15;;;;;;;27.27;7.90;;;;;;;13.25;100.00;102105.25;5016353;28;20482;-88
2021/12/11 21:15:51;;;;;;;37.37;13.07;;;;;;;13.21;100.00;102099.25;5016849;28;20444;-88
2021/12/11 21:18:21;;;;;;;67.33;23.00;;;;;;;13.28;100.00;102110.38;5032441;28;20976;-88
2021/12/11 21:20:55;;;;;;;95.00;29.57;;;;;;;13.28;100.00;102113.13;5009403;28;20459;-88
2021/12/11 21:23:36;;;;;;;49.50;16.20;;;;;;;13.26;100.00;102109.72;5052849;28;20835;-88
2021/12/11 21:26:07;;;;;;;29.07;10.90;;;;;;;13.24;100.00;102117.28;5035890;28;20476;-88
2021/12/11 21:28:39;;;;;;;29.67;10.60;;;;;;;13.18;100.00;102105.09;5050426;28;20474;-88
2021/12/11 21:31:10;;;;;;;85.97;37.40;;;;;;;13.11;100.00;102110.41;5052216;28;20539;-88
2021/12/11 21:33:40;;;;;;;55.67;25.47;;;;;;;13.10;100.00;102114.19;5052084;28;20438;-88
2021/12/11 21:36:19;;;;;;;55.77;25.50;;;;;;;13.09;100.00;102120.69;5034864;28;20439;-88
2021/12/11 21:38:57;;;;;;;66.13;31.53;;;;;;;13.10;100.00;102125.16;5050834;28;20446;-87
2021/12/11 21:41:29;;;;;;;55.40;29.33;;;;;;;12.98;100.00;102104.63;5049491;28;20501;-87
2021/12/11 21:43:58;;;;;;;58.67;27.10;;;;;;;13.03;100.00;102112.34;5031869;28;20431;-88
2021/12/11 21:46:36;;;;;;;83.67;33.37;;;;;;;12.99;100.00;102106.34;5036150;28;20746;-88
2021/12/11 21:49:29;;;;;;;78.87;29.50;;;;;;;12.99;100.00;102116.47;5044262;28;20447;-88
2021/12/11 21:52:03;;;;;;;59.80;24.00;;;;;;;12.97;100.00;102116.63;5036577;28;20497;-88
2021/12/11 21:54:38;;;;;;;52.23;20.87;;;;;;;12.93;100.00;102107.03;5048442;28;20463;-88
2021/12/11 21:57:10;;;;;;;42.50;20.40;;;;;;;12.91;100.00;102109.09;5047275;28;20443;-88
2021/12/11 21:59:52;;;;;;;59.03;25.27;;;;;;;12.88;100.00;102114.97;5032018;28;20443;-88
2021/12/11 22:02:29;;;;;;;30.83;14.17;;;;;;;12.88;100.00;102103.13;5040911;28;20443;-88
2021/12/11 22:05:02;;;;;;;29.10;12.43;;;;;;;12.90;100.00;102110.13;5030100;28;20447;-87
2021/12/11 22:07:33;;;;;;;29.60;13.17;;;;;;;12.86;100.00;102108.78;5016555;28;20964;-88
2021/12/11 22:14:43;;;;;;;35.40;14.67;;;;;;;12.79;100.00;102105.03;5037044;28;20395;-87
2021/12/11 22:17:16;;;;;;;41.17;18.80;;;;;;;12.76;100.00;102103.47;5036765;28;20443;-87
2021/12/11 22:19:47;;;;;;;33.77;20.23;;;;;;;12.77;100.00;102112.56;5054088;28;20443;-87
2021/12/11 22:26:37;;;;;;;31.43;12.30;;;;;;;12.75;100.00;102099.03;5026853;28;20425;-88
2021/12/11 22:29:10;;;;;;;109.00;39.83;;;;;;;12.74;100.00;102110.16;4975679;28;20955;-87
2021/12/11 22:31:45;;;;;;;48.50;22.40;;;;;;;12.75;100.00;102111.88;4981503;28;20553;-87
2021/12/11 22:34:16;;;;;;;25.57;11.60;;;;;;;12.72;100.00;102093.03;4993809;28;21064;-87
2021/12/11 22:36:44;;;;;;;22.50;10.57;;;;;;;12.70;100.00;102100.59;4959386;28;20453;-88
2021/12/11 22:39:15;;;;;;;25.47;11.47;;;;;;;12.63;100.00;102099.56;4978986;28;20437;-88
2021/12/11 22:41:46;;;;;;;34.70;13.77;;;;;;;12.61;100.00;102097.00;4965573;28;20535;-87
2021/12/11 22:44:22;;;;;;;20.87;10.60;;;;;;;12.59;100.00;102107.28;4962965;28;20492;-88
2021/12/11 22:46:55;;;;;;;28.07;13.63;;;;;;;12.58;100.00;102101.97;4944574;28;21071;-88
2021/12/11 22:49:25;;;;;;;24.77;9.30;;;;;;;12.53;100.00;102097.00;4959827;28;20944;-88
2021/12/11 22:51:55;;;;;;;23.50;11.20;;;;;;;12.50;100.00;102099.25;4959807;28;20477;-88
2021/12/11 22:54:30;;;;;;;18.40;9.33;;;;;;;12.50;100.00;102105.59;4965950;28;20526;-88
2021/12/11 22:57:11;;;;;;;31.40;14.70;;;;;;;12.48;100.00;102112.28;4975347;28;20434;-88
2021/12/11 22:59:39;;;;;;;33.07;14.33;;;;;;;12.43;100.00;102099.94;4961113;28;20494;-88
2021/12/11 23:02:09;;;;;;;78.77;34.87;;;;;;;12.43;100.00;102101.81;4947118;28;20456;-88
2021/12/11 23:05:09;;;;;;;36.63;18.20;;;;;;;12.42;100.00;102098.22;4947147;28;20449;-88
2021/12/11 23:07:44;;;;;;;25.50;12.23;;;;;;;12.39;100.00;102101.31;5052851;28;20495;-88
2021/12/11 23:10:18;;;;;;;34.50;14.97;;;;;;;12.37;100.00;102097.03;5074668;28;20527;-88
2021/12/11 23:12:50;;;;;;;33.70;16.57;;;;;;;12.34;100.00;102095.47;5038796;28;20533;-88
2021/12/11 23:16:00;;;;;;;36.80;16.83;;;;;;;12.34;100.00;102106.44;5054929;28;20434;-88
2021/12/11 23:19:00;;;;;;;42.30;19.73;;;;;;;12.28;100.00;102087.97;5054180;28;20438;-88
2021/12/11 23:21:34;;;;;;;27.93;12.83;;;;;;;12.28;100.00;102090.69;5055648;28;20458;-88
2021/12/11 23:24:13;;;;;;;31.20;14.27;;;;;;;12.27;100.00;102089.00;5054844;28;20454;-88
2021/12/11 23:26:44;;;;;;;28.07;10.10;;;;;;;12.27;100.00;102099.94;5022580;28;20442;-88
2021/12/11 23:29:38;;;;;;;24.83;9.80;;;;;;;12.21;100.00;102089.66;5021572;28;20806;-87
2021/12/11 23:32:13;;;;;;;19.47;10.90;;;;;;;12.19;100.00;102090.84;5047354;28;20469;-88
2021/12/11 23:34:47;;;;;;;21.13;8.30;;;;;;;12.18;100.00;102098.22;5058212;28;20464;-88
2021/12/11 23:37:40;;;;;;;19.30;7.63;;;;;;;12.12;100.00;102096.19;5041663;28;20449;-87
2021/12/11 23:40:13;;;;;;;13.53;6.40;;;;;;;12.06;100.00;102091.38;5043586;28;20446;-88
2021/12/11 23:42:46;;;;;;;16.13;7.90;;;;;;;12.02;100.00;102084.53;5053949;28;20975;-88
2021/12/11 23:45:21;;;;;;;13.77;6.40;;;;;;;12.00;100.00;102090.16;5058473;28;20483;-88
2021/12/11 23:47:52;;;;;;;14.00;7.03;;;;;;;11.97;100.00;102090.50;5064849;28;20473;-88
2021/12/11 23:50:25;;;;;;;15.97;6.50;;;;;;;11.95;100.00;102088.97;5022274;28;20831;-88
2021/12/11 23:52:54;;;;;;;16.10;5.70;;;;;;;11.92;100.00;102086.59;5037480;28;20478;-87
2021/12/11 23:55:46;;;;;;;11.73;7.03;;;;;;;11.93;100.00;102086.38;5021713;28;20440;-89
2021/12/11 23:58:14;;;;;;;11.40;5.60;;;;;;;11.88;100.00;102083.31;5055425;28;20500;-90
